createdAt,value
2023-02-22T00:00:56.449Z,57.13
2023-02-22T00:03:28.212Z,49.07
2023-02-22T00:05:58.522Z,60.33
2023-02-22T00:08:31.008Z,51.03
2023-02-22T00:11:08.533Z,55.30
2023-02-22T00:13:37.152Z,48.20
2023-02-22T00:16:04.726Z,55.10
2023-02-22T00:18:31.473Z,55.30
2023-02-22T00:21:00.424Z,52.47
2023-02-22T00:23:29.800Z,60.07
2023-02-22T00:25:58.495Z,59.83
2023-02-22T00:28:25.898Z,58.47
2023-02-22T00:30:55.035Z,56.83
2023-02-22T00:33:21.887Z,58.60
2023-02-22T00:35:48.744Z,60.00
2023-02-22T00:38:18.340Z,63.17
2023-02-22T00:40:45.531Z,59.30
2023-02-22T00:43:12.337Z,60.13
2023-02-22T00:45:39.064Z,67.03
2023-02-22T00:48:06.965Z,60.37
2023-02-22T00:50:34.737Z,65.37
2023-02-22T00:53:03.884Z,58.73
2023-02-22T00:55:32.982Z,56.17
2023-02-22T00:58:00.237Z,61.77
2023-02-22T01:00:36.526Z,52.83
2023-02-22T01:03:06.994Z,55.83
2023-02-22T01:05:34.188Z,59.17
2023-02-22T01:08:02.462Z,59.37
2023-02-22T01:10:31.292Z,56.13
2023-02-22T01:12:59.952Z,56.80
2023-02-22T01:15:30.990Z,56.00
2023-02-22T01:17:59.579Z,62.60
2023-02-22T01:20:27.551Z,65.07
2023-02-22T01:22:55.847Z,60.30
2023-02-22T01:25:29.547Z,54.10
2023-02-22T01:27:58.468Z,53.33
2023-02-22T01:30:28.377Z,57.77
2023-02-22T01:32:55.381Z,53.20
2023-02-22T01:35:26.144Z,57.67
2023-02-22T01:37:52.812Z,56.83
2023-02-22T01:40:25.723Z,61.53
2023-02-22T01:42:54.428Z,54.50
2023-02-22T01:45:30.397Z,53.43
2023-02-22T01:48:02.291Z,52.13
2023-02-22T01:50:31.854Z,56.47
2023-02-22T01:52:58.912Z,51.87
2023-02-22T01:55:25.904Z,46.93
2023-02-22T01:57:52.833Z,51.37
2023-02-22T02:00:22.196Z,49.07
2023-02-22T02:02:58.903Z,44.60
2023-02-22T02:05:27.145Z,46.63
2023-02-22T02:07:54.209Z,47.20
2023-02-22T02:10:21.628Z,43.67
2023-02-22T02:12:51.071Z,40.43
2023-02-22T02:15:32.586Z,38.83
2023-02-22T02:18:03.975Z,39.43
2023-02-22T02:20:42.914Z,42.37
2023-02-22T02:23:12.546Z,41.00
2023-02-22T02:25:58.067Z,39.47
2023-02-22T02:28:50.941Z,37.37
2023-02-22T02:31:27.670Z,37.47
2023-02-22T02:34:05.313Z,38.93
2023-02-22T02:37:02.126Z,34.77
2023-02-22T02:39:57.345Z,31.97
2023-02-22T02:42:38.358Z,26.03
2023-02-22T02:45:18.047Z,28.17
2023-02-22T02:47:58.655Z,31.03
2023-02-22T02:50:33.937Z,28.03
2023-02-22T02:53:04.769Z,27.40
2023-02-22T02:55:32.907Z,24.00
2023-02-22T02:58:00.393Z,20.67
2023-02-22T03:00:31.703Z,25.07
2023-02-22T03:03:20.799Z,23.70
2023-02-22T03:06:09.171Z,21.00
2023-02-22T03:08:50.640Z,22.40
2023-02-22T03:11:25.325Z,21.70
2023-02-22T03:13:57.923Z,23.80
2023-02-22T03:16:45.881Z,19.80
2023-02-22T03:19:21.102Z,16.93
2023-02-22T03:22:10.781Z,18.33
2023-02-22T03:25:07.208Z,21.17
2023-02-22T03:27:54.549Z,19.20
2023-02-22T03:30:30.888Z,23.40
2023-02-22T03:33:09.186Z,19.03
2023-02-22T03:35:42.000Z,18.20
2023-02-22T03:38:12.814Z,18.73
2023-02-22T03:40:46.562Z,16.70
2023-02-22T03:43:25.699Z,20.87
2023-02-22T03:45:53.451Z,18.60
2023-02-22T03:48:29.599Z,15.80
2023-02-22T03:50:58.498Z,15.70
2023-02-22T03:53:25.744Z,17.60
2023-02-22T03:55:55.697Z,17.10
2023-02-22T03:58:25.456Z,16.53
2023-02-22T04:00:53.380Z,16.03
2023-02-22T04:03:21.674Z,14.83
2023-02-22T04:05:48.811Z,15.90
2023-02-22T04:08:16.230Z,15.43
2023-02-22T04:10:43.183Z,18.97
2023-02-22T04:13:10.754Z,18.10
2023-02-22T04:15:37.943Z,16.17
2023-02-22T04:18:05.774Z,15.37
2023-02-22T04:20:34.878Z,15.67
2023-02-22T04:23:01.755Z,17.53
2023-02-22T04:25:28.776Z,19.53
2023-02-22T04:27:55.407Z,17.70
2023-02-22T04:30:22.745Z,22.10
2023-02-22T04:32:49.584Z,19.67
2023-02-22T04:35:16.312Z,17.27
2023-02-22T04:37:43.061Z,20.90
2023-02-22T04:40:11.595Z,22.00
2023-02-22T04:42:39.321Z,21.23
2023-02-22T04:45:08.142Z,18.03
2023-02-22T04:47:36.250Z,19.40
2023-02-22T04:50:07.601Z,15.87
2023-02-22T04:52:34.288Z,24.23
2023-02-22T04:55:01.111Z,20.53
2023-02-22T04:57:27.792Z,22.77
2023-02-22T04:59:54.460Z,24.23
2023-02-22T05:02:21.423Z,19.90
2023-02-22T05:04:48.346Z,23.27
2023-02-22T05:07:15.037Z,27.00
2023-02-22T05:09:41.857Z,19.63
2023-02-22T05:12:08.683Z,25.30
2023-02-22T05:14:35.601Z,24.07
2023-02-22T05:17:03.817Z,28.30
2023-02-22T05:19:30.733Z,26.40
2023-02-22T05:21:57.719Z,22.27
2023-02-22T05:24:24.650Z,24.73
2023-02-22T05:26:51.441Z,30.23
2023-02-22T05:29:18.260Z,27.60
2023-02-22T05:31:45.037Z,36.60
2023-02-22T05:34:12.152Z,35.80
2023-02-22T05:36:38.959Z,34.17
2023-02-22T05:39:05.673Z,36.20
2023-02-22T05:41:32.384Z,34.20
2023-02-22T05:43:59.132Z,41.40
2023-02-22T05:46:25.897Z,50.50
2023-02-22T05:48:52.569Z,57.67
2023-02-22T05:51:19.770Z,51.47
2023-02-22T05:53:46.644Z,58.57
2023-02-22T05:56:13.274Z,50.13
2023-02-22T05:58:39.952Z,43.90
2023-02-22T06:01:06.645Z,43.70
2023-02-22T06:03:33.374Z,57.37
2023-02-22T06:06:00.090Z,64.07
2023-02-22T06:08:26.914Z,57.87
2023-02-22T06:10:53.600Z,51.70
2023-02-22T06:13:20.347Z,54.60
2023-02-22T06:15:47.062Z,57.70
2023-02-22T06:18:13.751Z,61.90
2023-02-22T06:20:40.535Z,53.20
2023-02-22T06:23:07.408Z,66.97
2023-02-22T06:25:34.132Z,66.23
2023-02-22T06:28:01.484Z,68.43
2023-02-22T06:30:29.530Z,69.00
2023-02-22T06:32:56.260Z,75.00
2023-02-22T06:35:23.624Z,55.47
2023-02-22T06:37:50.531Z,60.13
2023-02-22T06:40:17.477Z,61.90
2023-02-22T06:42:44.180Z,69.03
2023-02-22T06:45:11.234Z,65.90
2023-02-22T06:47:40.649Z,60.03
2023-02-22T06:50:17.492Z,49.33
2023-02-22T06:52:44.655Z,76.10
2023-02-22T06:55:11.312Z,66.17
2023-02-22T06:57:37.973Z,59.30
2023-02-22T07:00:04.986Z,68.63
2023-02-22T07:02:31.659Z,72.80
2023-02-22T07:04:58.315Z,68.93
2023-02-22T07:07:25.362Z,58.33
2023-02-22T07:09:52.022Z,53.83
2023-02-22T07:12:18.840Z,60.30
2023-02-22T07:14:45.534Z,69.50
2023-02-22T07:17:12.776Z,65.37
2023-02-22T07:19:39.622Z,60.10
2023-02-22T07:22:06.976Z,60.63
2023-02-22T07:24:35.158Z,58.20
2023-02-22T07:27:02.737Z,60.80
2023-02-22T07:29:30.138Z,58.97
2023-02-22T07:31:58.098Z,72.53
2023-02-22T07:34:24.840Z,66.03
2023-02-22T07:36:51.523Z,69.97
2023-02-22T07:39:18.249Z,66.67
2023-02-22T07:41:44.932Z,62.17
2023-02-22T07:44:11.578Z,63.53
2023-02-22T07:46:38.411Z,67.53
2023-02-22T07:49:05.432Z,55.17
2023-02-22T07:51:32.146Z,52.60
2023-02-22T07:53:58.840Z,62.13
2023-02-22T07:56:25.467Z,55.83
2023-02-22T07:58:52.195Z,60.17
2023-02-22T08:01:19.100Z,73.00
2023-02-22T08:03:47.680Z,73.43
2023-02-22T08:06:14.467Z,82.83
2023-02-22T08:08:41.170Z,69.37
2023-02-22T08:11:07.845Z,74.93
2023-02-22T08:13:37.206Z,66.93
2023-02-22T08:16:04.268Z,67.20
2023-02-22T08:18:31.232Z,65.03
2023-02-22T08:20:57.918Z,69.33
2023-02-22T08:23:27.030Z,69.80
2023-02-22T08:25:54.499Z,66.60
2023-02-22T08:28:23.686Z,66.47
2023-02-22T08:30:51.161Z,71.87
2023-02-22T08:33:19.823Z,80.73
2023-02-22T08:35:49.844Z,79.03
2023-02-22T08:38:24.547Z,67.83
2023-02-22T08:40:51.890Z,78.17
2023-02-22T08:43:20.091Z,85.27
2023-02-22T08:45:47.618Z,70.83
2023-02-22T08:48:15.834Z,70.27
2023-02-22T08:50:42.709Z,76.10
2023-02-22T08:53:10.584Z,62.83
2023-02-22T08:55:41.262Z,64.53
2023-02-22T08:58:13.685Z,60.00
2023-02-22T09:00:43.868Z,56.73
2023-02-22T09:03:14.629Z,51.70
2023-02-22T09:05:44.608Z,47.20
2023-02-22T09:08:13.447Z,45.87
2023-02-22T09:10:40.875Z,46.47
2023-02-22T09:13:07.679Z,42.10
2023-02-22T09:15:37.769Z,40.40
2023-02-22T09:18:08.504Z,41.40
2023-02-22T09:20:38.015Z,38.67
2023-02-22T09:23:07.395Z,38.00
2023-02-22T09:25:39.092Z,37.33
2023-02-22T09:28:06.016Z,39.77
2023-02-22T09:30:34.657Z,38.37
2023-02-22T09:33:07.917Z,36.40
2023-02-22T09:35:36.357Z,38.57
2023-02-22T09:38:06.506Z,33.77
2023-02-22T09:40:41.043Z,35.43
2023-02-22T09:43:33.338Z,36.77
2023-02-22T09:46:21.342Z,35.63
2023-02-22T09:48:54.318Z,38.60
2023-02-22T09:51:22.316Z,34.77
2023-02-22T09:53:51.648Z,33.27
2023-02-22T09:56:20.923Z,33.87
2023-02-22T09:58:52.444Z,29.50
2023-02-22T10:01:56.781Z,36.07
2023-02-22T10:04:41.430Z,33.87
2023-02-22T10:07:28.530Z,32.90
2023-02-22T10:09:57.631Z,32.47
2023-02-22T10:12:34.054Z,32.87
2023-02-22T10:15:22.609Z,30.43
2023-02-22T10:18:24.864Z,30.10
2023-02-22T10:21:00.168Z,33.53
2023-02-22T10:23:47.614Z,34.47
2023-02-22T10:26:25.579Z,31.37
2023-02-22T10:29:19.004Z,31.23
2023-02-22T10:31:50.592Z,31.13
2023-02-22T10:34:23.584Z,31.03
2023-02-22T10:37:13.892Z,30.53
2023-02-22T10:39:43.004Z,32.87
2023-02-22T10:42:09.866Z,29.57
2023-02-22T10:44:38.422Z,29.80
2023-02-22T10:47:11.695Z,33.80
2023-02-22T10:49:44.055Z,34.57
2023-02-22T10:52:29.404Z,32.57
2023-02-22T10:55:13.531Z,33.17
2023-02-22T10:57:44.409Z,33.90
2023-02-22T11:00:19.742Z,32.53
2023-02-22T11:02:58.168Z,32.53
2023-02-22T11:05:31.136Z,29.30
2023-02-22T11:08:22.931Z,32.20
2023-02-22T11:10:56.435Z,28.57
2023-02-22T11:13:31.198Z,29.17
2023-02-22T11:16:18.683Z,29.40
2023-02-22T11:18:47.132Z,30.63
2023-02-22T11:21:22.802Z,30.90
2023-02-22T11:23:50.534Z,28.63
2023-02-22T11:26:20.701Z,31.83
2023-02-22T11:28:56.242Z,28.80
2023-02-22T11:31:28.361Z,31.03
2023-02-22T11:36:40.931Z,32.53
2023-02-22T11:39:24.680Z,31.00
2023-02-22T11:41:52.006Z,34.60
2023-02-22T11:44:27.677Z,31.30
2023-02-22T11:46:56.470Z,29.17
2023-02-22T11:49:33.345Z,30.43
2023-02-22T11:52:12.015Z,31.10
2023-02-22T11:55:32.723Z,27.40
2023-02-22T11:58:23.273Z,30.00
2023-02-22T12:01:07.154Z,26.73
2023-02-22T12:04:00.881Z,29.57
2023-02-22T12:06:45.498Z,27.50
2023-02-22T12:09:18.686Z,27.83
2023-02-22T12:11:55.033Z,26.13
2023-02-22T12:14:21.636Z,29.37
2023-02-22T12:17:03.810Z,29.80
2023-02-22T12:19:43.331Z,28.53
2023-02-22T12:22:33.567Z,26.63
2023-02-22T12:25:25.174Z,26.77
2023-02-22T12:28:27.294Z,26.03
2023-02-22T12:31:10.176Z,25.67
2023-02-22T12:33:51.973Z,26.73
2023-02-22T12:36:25.015Z,24.17
2023-02-22T12:39:00.493Z,24.00
2023-02-22T12:41:40.426Z,23.13
2023-02-22T12:44:26.332Z,25.03
2023-02-22T12:46:57.255Z,23.17
2023-02-22T12:50:05.860Z,21.10
2023-02-22T12:52:48.238Z,21.90
2023-02-22T12:55:21.820Z,21.90
2023-02-22T12:58:17.892Z,22.07
2023-02-22T13:01:18.067Z,20.07
2023-02-22T13:03:45.675Z,20.40
2023-02-22T13:06:29.998Z,20.50
2023-02-22T13:09:03.715Z,20.40
2023-02-22T13:12:07.887Z,18.10
2023-02-22T13:15:09.608Z,20.87
2023-02-22T13:18:03.052Z,19.23
2023-02-22T13:20:43.214Z,20.33
2023-02-22T13:23:13.807Z,18.70
2023-02-22T13:26:24.639Z,17.30
2023-02-22T13:29:24.957Z,18.47
2023-02-22T13:32:07.193Z,18.93
2023-02-22T13:34:33.786Z,19.37
2023-02-22T13:37:09.375Z,18.73
2023-02-22T13:39:46.102Z,21.33
2023-02-22T13:42:48.530Z,16.17
2023-02-22T13:45:27.346Z,16.00
2023-02-22T13:48:06.922Z,15.63
2023-02-22T13:50:36.524Z,14.87
2023-02-22T13:53:13.183Z,15.03
2023-02-22T13:55:43.304Z,13.50
2023-02-22T13:58:12.732Z,14.33
2023-02-22T14:00:40.747Z,13.77
2023-02-22T14:03:13.575Z,14.00
2023-02-22T14:05:43.073Z,13.97
2023-02-22T14:08:19.084Z,12.60
2023-02-22T14:10:48.978Z,13.90
2023-02-22T14:13:22.618Z,12.93
2023-02-22T14:16:02.388Z,13.57
2023-02-22T14:18:42.904Z,10.20
2023-02-22T14:21:16.111Z,13.37
2023-02-22T14:23:57.065Z,12.43
2023-02-22T14:26:28.869Z,12.17
2023-02-22T14:29:10.955Z,8.63
2023-02-22T14:31:40.788Z,9.83
2023-02-22T14:34:16.475Z,10.67
2023-02-22T14:37:01.133Z,8.90
2023-02-22T14:39:34.564Z,9.67
2023-02-22T14:42:23.270Z,10.00
2023-02-22T14:44:52.984Z,8.50
2023-02-22T14:47:28.664Z,7.83
2023-02-22T14:50:05.163Z,9.90
2023-02-22T14:52:35.062Z,11.63
2023-02-22T14:55:08.422Z,9.40
2023-02-22T14:57:48.456Z,9.00
2023-02-22T15:00:19.984Z,7.37
2023-02-22T15:02:52.574Z,9.23
2023-02-22T15:05:21.025Z,10.63
2023-02-22T15:08:03.950Z,8.97
2023-02-22T15:10:39.142Z,8.30
2023-02-22T15:13:15.882Z,10.03
2023-02-22T15:15:49.606Z,9.77
2023-02-22T15:18:30.416Z,10.83
2023-02-22T15:21:02.525Z,8.97
2023-02-22T15:23:41.822Z,11.37
2023-02-22T15:26:31.652Z,10.40
2023-02-22T15:28:59.831Z,9.97
2023-02-22T15:31:35.495Z,8.90
2023-02-22T15:34:42.723Z,10.77
2023-02-22T15:37:29.213Z,7.90
2023-02-22T15:40:14.765Z,11.23
2023-02-22T15:42:58.396Z,10.73
2023-02-22T15:45:26.298Z,10.77
2023-02-22T15:47:54.974Z,11.47
2023-02-22T15:50:27.882Z,9.03
2023-02-22T15:53:01.686Z,12.20
2023-02-22T15:55:36.745Z,9.13
2023-02-22T15:58:18.849Z,11.03
2023-02-22T16:00:50.771Z,11.53
2023-02-22T16:03:23.859Z,10.27
2023-02-22T16:05:55.722Z,13.57
2023-02-22T16:08:25.263Z,11.30
2023-02-22T16:11:02.647Z,11.30
2023-02-22T16:13:33.854Z,13.53
2023-02-22T16:16:06.087Z,13.87
2023-02-22T16:18:34.606Z,13.20
2023-02-22T16:21:12.958Z,11.80
2023-02-22T16:23:49.325Z,12.63
2023-02-22T16:26:35.121Z,13.53
2023-02-22T16:29:08.255Z,14.10
2023-02-22T16:31:37.668Z,10.23
2023-02-22T16:34:06.934Z,11.90
2023-02-22T16:36:43.210Z,10.60
2023-02-22T16:39:27.170Z,9.80
2023-02-22T16:42:05.331Z,11.67
2023-02-22T16:44:32.018Z,21.13
2023-02-22T16:47:00.668Z,9.57
2023-02-22T16:49:27.653Z,13.87
2023-02-22T16:51:58.817Z,10.40
2023-02-22T16:54:34.397Z,11.03
2023-02-22T16:57:03.977Z,13.10
2023-02-22T16:59:38.782Z,9.53
2023-02-22T17:02:09.119Z,10.50
2023-02-22T17:04:35.778Z,12.77
2023-02-22T17:07:05.143Z,12.20
2023-02-22T17:09:33.061Z,11.07
2023-02-22T17:12:00.512Z,13.20
2023-02-22T17:14:31.914Z,12.77
2023-02-22T17:16:59.444Z,14.50
2023-02-22T17:19:26.646Z,15.00
2023-02-22T17:21:53.803Z,12.33
2023-02-22T17:24:23.285Z,14.27
2023-02-22T17:26:52.142Z,11.30
2023-02-22T17:29:18.916Z,14.13
2023-02-22T17:31:46.279Z,12.67
2023-02-22T17:34:13.203Z,13.67
2023-02-22T17:36:39.935Z,14.73
2023-02-22T17:39:10.271Z,16.80
2023-02-22T17:41:40.181Z,14.63
2023-02-22T17:44:07.502Z,15.17
2023-02-22T17:46:36.169Z,16.03
2023-02-22T17:49:03.461Z,16.00
2023-02-22T17:51:30.271Z,11.60
2023-02-22T17:53:57.251Z,13.93
2023-02-22T17:56:24.073Z,14.67
2023-02-22T17:58:54.239Z,14.37
2023-02-22T18:01:32.165Z,17.40
2023-02-22T18:04:01.457Z,14.57
2023-02-22T18:06:30.243Z,13.30
2023-02-22T18:08:58.990Z,12.30
2023-02-22T18:11:27.210Z,12.83
2023-02-22T18:13:55.534Z,15.50
2023-02-22T18:16:23.305Z,13.83
2023-02-22T18:18:50.082Z,16.03
2023-02-22T18:21:16.802Z,14.00
2023-02-22T18:23:46.723Z,14.57
2023-02-22T18:26:18.787Z,13.63
2023-02-22T18:28:45.785Z,13.90
2023-02-22T18:31:15.013Z,20.07
2023-02-22T18:33:47.853Z,17.37
2023-02-22T18:36:16.696Z,16.93
2023-02-22T18:38:44.760Z,14.70
2023-02-22T18:41:14.325Z,14.87
2023-02-22T18:43:41.483Z,14.50
2023-02-22T18:46:17.902Z,14.73
2023-02-22T18:48:47.075Z,19.27
2023-02-22T18:51:15.955Z,15.80
2023-02-22T18:53:47.096Z,15.57
2023-02-22T18:56:22.142Z,16.63
2023-02-22T18:58:54.098Z,17.20
2023-02-22T19:01:22.156Z,15.53
2023-02-22T19:03:49.240Z,17.47
2023-02-22T19:06:17.633Z,19.10
2023-02-22T19:08:46.145Z,17.70
2023-02-22T19:11:21.774Z,13.80
2023-02-22T19:13:51.524Z,16.53
2023-02-22T19:16:20.359Z,18.73
2023-02-22T19:18:49.016Z,19.07
2023-02-22T19:21:16.440Z,19.00
2023-02-22T19:23:46.218Z,22.93
2023-02-22T19:26:18.541Z,23.13
2023-02-22T19:28:46.640Z,23.40
2023-02-22T19:31:19.857Z,20.87
2023-02-22T19:33:48.634Z,24.03
2023-02-22T19:36:16.248Z,25.70
2023-02-22T19:38:43.591Z,30.00
2023-02-22T19:41:24.306Z,23.33
2023-02-22T19:43:55.871Z,24.07
2023-02-22T19:46:24.836Z,25.03
2023-02-22T19:48:53.231Z,25.27
2023-02-22T19:51:25.288Z,22.47
2023-02-22T19:53:52.736Z,22.20
2023-02-22T19:56:27.094Z,21.30
2023-02-22T19:58:55.630Z,24.67
2023-02-22T20:01:25.271Z,25.83
2023-02-22T20:03:54.494Z,23.90
2023-02-22T20:06:23.118Z,19.80
2023-02-22T20:08:51.118Z,19.73
2023-02-22T20:11:18.175Z,20.97
2023-02-22T20:13:45.350Z,20.57
2023-02-22T20:16:15.771Z,20.77
2023-02-22T20:18:43.940Z,18.93
2023-02-22T20:21:14.044Z,19.43
2023-02-22T20:23:44.335Z,19.43
2023-02-22T20:26:17.309Z,21.50
2023-02-22T20:28:44.076Z,16.60
2023-02-22T20:31:13.807Z,21.57
2023-02-22T20:33:45.762Z,19.30
2023-02-22T20:36:15.329Z,19.30
2023-02-22T20:38:42.878Z,18.27
2023-02-22T20:41:15.519Z,20.80
2023-02-22T20:43:42.253Z,19.60
2023-02-22T20:46:09.024Z,18.97
2023-02-22T20:48:35.710Z,18.47
2023-02-22T20:51:14.292Z,18.67
2023-02-22T20:53:42.388Z,19.33
2023-02-22T20:56:17.951Z,23.93
2023-02-22T20:58:45.228Z,17.93
2023-02-22T21:01:14.106Z,19.90
2023-02-22T21:03:44.661Z,20.83
2023-02-22T21:06:15.471Z,18.43
2023-02-22T21:08:44.317Z,21.53
2023-02-22T21:11:15.363Z,19.27
2023-02-22T21:13:42.595Z,22.00
2023-02-22T21:16:15.505Z,22.37
2023-02-22T21:18:42.232Z,22.37
2023-02-22T21:21:12.677Z,20.87
2023-02-22T21:23:42.980Z,20.60
2023-02-22T21:26:18.798Z,19.10
2023-02-22T21:28:51.236Z,21.20
2023-02-22T21:31:21.309Z,21.83
2023-02-22T21:33:50.856Z,24.57
2023-02-22T21:36:19.079Z,20.63
2023-02-22T21:38:57.065Z,20.53
2023-02-22T21:41:27.696Z,20.77
2023-02-22T21:43:56.744Z,21.67
2023-02-22T21:46:29.031Z,20.90
2023-02-22T21:48:58.722Z,20.93
2023-02-22T21:51:31.631Z,24.17
2023-02-22T21:54:03.398Z,24.57
2023-02-22T21:56:34.359Z,22.27
2023-02-22T21:59:06.306Z,22.07
2023-02-22T22:01:36.731Z,23.17
2023-02-22T22:04:04.443Z,24.17
2023-02-22T22:06:34.407Z,22.03
2023-02-22T22:09:04.635Z,25.07
2023-02-22T22:11:31.303Z,23.07
2023-02-22T22:13:59.730Z,21.60
2023-02-22T22:16:29.834Z,24.47
2023-02-22T22:18:56.869Z,24.00
2023-02-22T22:21:25.323Z,21.17
2023-02-22T22:23:56.112Z,24.07
2023-02-22T22:26:24.831Z,22.20
2023-02-22T22:28:56.017Z,23.50
2023-02-22T22:31:26.023Z,26.53
2023-02-22T22:33:54.502Z,24.50
2023-02-22T22:36:22.339Z,21.70
2023-02-22T22:38:49.443Z,25.83
2023-02-22T22:41:19.378Z,23.13
2023-02-22T22:43:46.886Z,20.97
2023-02-22T22:46:16.347Z,25.53
2023-02-22T22:48:47.010Z,22.67
2023-02-22T22:51:21.124Z,24.30
2023-02-22T22:53:49.556Z,25.73
2023-02-22T22:56:19.431Z,25.87
2023-02-22T22:58:57.401Z,25.27
2023-02-22T23:01:33.538Z,25.13
2023-02-22T23:04:02.870Z,22.57
2023-02-22T23:06:33.043Z,25.27
2023-02-22T23:09:37.628Z,27.20
2023-02-22T23:12:09.161Z,25.30
2023-02-22T23:14:38.742Z,27.30
2023-02-22T23:17:15.368Z,27.03
2023-02-22T23:19:45.063Z,25.47
2023-02-22T23:22:14.465Z,29.00
2023-02-22T23:24:41.526Z,24.70
2023-02-22T23:27:10.854Z,28.57
2023-02-22T23:29:39.737Z,23.60
2023-02-22T23:32:07.366Z,27.90
2023-02-22T23:34:36.054Z,28.17
2023-02-22T23:37:03.232Z,30.57
2023-02-22T23:39:29.927Z,28.17
2023-02-22T23:41:59.400Z,28.53
2023-02-22T23:44:27.643Z,27.70
2023-02-22T23:46:57.714Z,30.27
2023-02-22T23:49:35.723Z,31.93
2023-02-22T23:52:03.818Z,31.70
2023-02-22T23:54:36.687Z,31.40
2023-02-22T23:57:04.953Z,30.13
2023-02-22T23:59:32.826Z,33.07
